Time;durP1;ratioP1;P1;durP2;ratioP2;P2;SDS_P1;SDS_P2;PMS_P1;PMS_P2;Temp;Humidity;BMP_temperature;BMP_pressure;BME280_temperature;BME280_humidity;BME280_pressure;Samples;Min_cycle;Max_cycle;Signal;HPM_P1;HPM_P2
2023/12/14 00:00:22;;;;;;;8.90;3.10;;;;;;;;;;4822107;29;20050;-81
2023/12/14 00:02:52;;;;;;;10.45;3.35;;;;;;;;;;4813872;29;20047;-81
2023/12/14 00:05:22;;;;;;;7.03;3.28;;;;;;;;;;4787397;29;20529;-81
2023/12/14 00:07:55;;;;;;;9.45;3.22;;;;;;;;;;4802250;29;20073;-82
2023/12/14 00:10:25;;;;;;;6.78;3.47;;;;;;;;;;4821499;29;20046;-82
2023/12/14 00:12:55;;;;;;;8.63;3.08;;;;;;;;;;4812881;29;20067;-82
2023/12/14 00:15:25;;;;;;;9.50;2.88;;;;;;;;;;4820873;29;20073;-82
2023/12/14 00:17:55;;;;;;;6.00;2.60;;;;;;;;;;4822484;29;20429;-80
2023/12/14 00:20:26;;;;;;;7.20;2.20;;;;;;;;;;4806729;29;20411;-82
2023/12/14 00:22:57;;;;;;;8.30;2.83;;;;;;;;;;4820510;29;20509;-83
2023/12/14 00:25:27;;;;;;;6.35;3.30;;;;;;;;;;4822991;29;20047;-83
2023/12/14 00:27:57;;;;;;;9.25;2.83;;;;;;;;;;4822289;29;20061;-81
2023/12/14 00:30:27;;;;;;;8.20;3.00;;;;;;;;;;4822124;29;20054;-82
2023/12/14 00:32:57;;;;;;;6.28;3.40;;;;;;;;;;4822428;29;20059;-82
2023/12/14 00:35:27;;;;;;;14.02;3.35;;;;;;;;;;4824078;29;20046;-82
2023/12/14 00:37:58;;;;;;;8.32;2.80;;;;;;;;;;4825592;29;20057;-82
2023/12/14 00:40:27;;;;;;;10.95;2.83;;;;;;;;;;4824377;29;20458;-82
2023/12/14 00:42:57;;;;;;;7.40;3.00;;;;;;;;;;4825734;29;20058;-82
2023/12/14 00:45:28;;;;;;;7.95;3.38;;;;;;;;;;4825941;29;20058;-82
2023/12/14 00:47:58;;;;;;;10.52;3.85;;;;;;;;;;4825901;29;20046;-81
2023/12/14 00:50:28;;;;;;;6.18;2.95;;;;;;;;;;4825721;29;20061;-82
2023/12/14 00:52:59;;;;;;;8.02;2.58;;;;;;;;;;4825528;29;20545;-82
2023/12/14 00:55:30;;;;;;;9.70;2.90;;;;;;;;;;4823936;29;20058;-82
2023/12/14 00:58:00;;;;;;;15.32;3.65;;;;;;;;;;4830037;29;20050;-82
2023/12/14 01:00:31;;;;;;;8.45;3.53;;;;;;;;;;4824459;29;20058;-82
2023/12/14 01:03:02;;;;;;;6.30;3.97;;;;;;;;;;4809551;29;20518;-81
2023/12/14 01:05:34;;;;;;;9.95;4.82;;;;;;;;;;4824163;29;20114;-82
2023/12/14 01:08:04;;;;;;;7.97;4.03;;;;;;;;;;4825594;29;20047;-82
2023/12/14 01:10:35;;;;;;;10.63;3.80;;;;;;;;;;4825357;29;20057;-82
2023/12/14 01:13:05;;;;;;;7.50;3.80;;;;;;;;;;4824020;29;20058;-82
2023/12/14 01:15:35;;;;;;;10.30;3.97;;;;;;;;;;4824568;29;20050;-83
2023/12/14 01:18:05;;;;;;;7.75;3.35;;;;;;;;;;4825389;29;20062;-81
2023/12/14 01:20:35;;;;;;;9.10;3.80;;;;;;;;;;4824250;29;20057;-81
2023/12/14 01:23:06;;;;;;;6.10;3.00;;;;;;;;;;4822476;29;20054;-83
2023/12/14 01:25:36;;;;;;;6.35;3.65;;;;;;;;;;4826226;29;20073;-83
2023/12/14 01:28:08;;;;;;;8.52;4.43;;;;;;;;;;4823271;29;20050;-82
2023/12/14 01:30:38;;;;;;;6.75;3.67;;;;;;;;;;4824608;29;20059;-81
2023/12/14 01:33:08;;;;;;;10.18;4.15;;;;;;;;;;4823341;29;20050;-82
2023/12/14 01:35:39;;;;;;;7.85;3.38;;;;;;;;;;4824602;29;20047;-83
2023/12/14 01:38:09;;;;;;;9.88;3.65;;;;;;;;;;4824208;29;20070;-81
2023/12/14 01:40:40;;;;;;;9.23;3.33;;;;;;;;;;4824861;29;20053;-82
2023/12/14 01:43:10;;;;;;;8.43;3.70;;;;;;;;;;4824656;29;20046;-81
2023/12/14 01:45:40;;;;;;;9.05;3.47;;;;;;;;;;4822867;29;20063;-82
2023/12/14 01:48:11;;;;;;;9.25;3.58;;;;;;;;;;4820225;29;20046;-83
2023/12/14 01:50:41;;;;;;;10.15;3.42;;;;;;;;;;4827062;29;20048;-82
2023/12/14 01:53:14;;;;;;;9.48;3.65;;;;;;;;;;4824388;29;20061;-82
2023/12/14 01:55:44;;;;;;;5.95;3.30;;;;;;;;;;4824459;29;20522;-81
2023/12/14 01:58:17;;;;;;;8.07;3.05;;;;;;;;;;4824337;29;20051;-81
2023/12/14 02:01:02;;;;;;;6.20;3.33;;;;;;;;;;4824174;29;20043;-81
2023/12/14 02:03:33;;;;;;;6.95;3.50;;;;;;;;;;4824211;29;20054;-82
2023/12/14 02:06:03;;;;;;;9.80;3.15;;;;;;;;;;4823578;29;20054;-82
2023/12/14 02:08:33;;;;;;;8.93;3.38;;;;;;;;;;4824064;29;20506;-83
2023/12/14 02:11:03;;;;;;;10.85;3.53;;;;;;;;;;4824042;29;20518;-82
2023/12/14 02:13:34;;;;;;;10.07;3.30;;;;;;;;;;4818637;29;20054;-82
2023/12/14 02:16:04;;;;;;;6.57;3.65;;;;;;;;;;4806141;29;20066;-80
2023/12/14 02:18:34;;;;;;;9.32;3.08;;;;;;;;;;4805257;29;20051;-81
2023/12/14 02:21:07;;;;;;;8.00;3.80;;;;;;;;;;4804397;29;20065;-81
2023/12/14 02:23:46;;;;;;;7.00;3.20;;;;;;;;;;4806187;29;20057;-82
2023/12/14 02:26:16;;;;;;;6.38;3.38;;;;;;;;;;4804480;29;20054;-81
2023/12/14 02:28:45;;;;;;;7.75;3.30;;;;;;;;;;4805822;29;20074;-82
2023/12/14 02:31:16;;;;;;;11.80;4.15;;;;;;;;;;4805235;29;20065;-81
2023/12/14 02:33:46;;;;;;;11.85;3.83;;;;;;;;;;4808294;29;20057;-81
2023/12/14 02:36:17;;;;;;;7.70;3.42;;;;;;;;;;4824291;29;20079;-81
2023/12/14 02:38:47;;;;;;;8.15;4.07;;;;;;;;;;4807740;29;20058;-81
2023/12/14 02:41:17;;;;;;;6.82;3.50;;;;;;;;;;4822899;29;20070;-81
2023/12/14 02:43:47;;;;;;;7.30;3.25;;;;;;;;;;4823996;29;20054;-82
2023/12/14 02:46:18;;;;;;;7.75;4.40;;;;;;;;;;4823742;29;20061;-81
2023/12/14 02:48:48;;;;;;;7.53;3.30;;;;;;;;;;4823583;29;20057;-82
2023/12/14 02:51:18;;;;;;;7.63;3.38;;;;;;;;;;4822008;29;20050;-82
2023/12/14 02:53:48;;;;;;;6.50;3.00;;;;;;;;;;4823587;29;20061;-81
2023/12/14 02:56:18;;;;;;;9.07;3.67;;;;;;;;;;4823756;29;20061;-81
2023/12/14 02:58:51;;;;;;;6.90;3.15;;;;;;;;;;4821758;29;20054;-81
2023/12/14 03:01:22;;;;;;;7.80;3.40;;;;;;;;;;4837805;29;20490;-82
2023/12/14 03:03:52;;;;;;;10.07;3.05;;;;;;;;;;4843023;29;20088;-82
2023/12/14 03:06:21;;;;;;;6.97;3.55;;;;;;;;;;4842285;29;20053;-81
2023/12/14 03:08:53;;;;;;;8.13;2.97;;;;;;;;;;4842739;29;20398;-80
2023/12/14 03:11:24;;;;;;;7.90;3.55;;;;;;;;;;4842063;29;20070;-82
2023/12/14 03:13:54;;;;;;;8.80;3.03;;;;;;;;;;4843055;29;20054;-80
2023/12/14 03:16:25;;;;;;;10.00;3.30;;;;;;;;;;4841187;29;20054;-82
2023/12/14 03:18:56;;;;;;;15.10;3.53;;;;;;;;;;4842462;29;20060;-82
2023/12/14 03:21:26;;;;;;;8.88;3.45;;;;;;;;;;4842896;29;20064;-82
2023/12/14 03:23:56;;;;;;;9.90;3.75;;;;;;;;;;4839970;29;20057;-83
2023/12/14 03:26:27;;;;;;;11.32;4.20;;;;;;;;;;4808446;29;20046;-82
2023/12/14 03:29:00;;;;;;;7.15;3.05;;;;;;;;;;4811895;29;20066;-81
2023/12/14 03:35:53;;;;;;;11.27;3.67;;;;;;;;;;4787648;29;20046;-81
2023/12/14 03:38:24;;;;;;;6.40;3.38;;;;;;;;;;4812589;29;20114;-82
2023/12/14 03:40:54;;;;;;;7.10;3.53;;;;;;;;;;4812794;29;20058;-81
2023/12/14 03:43:24;;;;;;;8.68;3.55;;;;;;;;;;4804940;29;20050;-82
2023/12/14 03:45:54;;;;;;;9.02;3.83;;;;;;;;;;4806529;29;20051;-81
2023/12/14 03:48:25;;;;;;;7.43;3.72;;;;;;;;;;4806482;29;20057;-82
2023/12/14 03:50:56;;;;;;;7.35;3.28;;;;;;;;;;4804401;29;20081;-82
2023/12/14 03:53:26;;;;;;;12.05;4.03;;;;;;;;;;4804642;29;20050;-82
2023/12/14 03:55:55;;;;;;;9.23;3.60;;;;;;;;;;4806659;29;20058;-82
2023/12/14 03:58:26;;;;;;;7.22;3.15;;;;;;;;;;4805784;29;20055;-81
2023/12/14 04:00:55;;;;;;;6.78;2.75;;;;;;;;;;4806196;29;20399;-81
2023/12/14 04:03:25;;;;;;;7.78;3.40;;;;;;;;;;4805399;29;20062;-82
2023/12/14 04:05:55;;;;;;;5.47;4.00;;;;;;;;;;4804047;29;20495;-81
2023/12/14 04:08:26;;;;;;;7.90;3.40;;;;;;;;;;4806307;29;20061;-81
2023/12/14 04:10:55;;;;;;;8.90;3.80;;;;;;;;;;4811416;29;20058;-82
2023/12/14 04:13:26;;;;;;;12.52;4.10;;;;;;;;;;4810128;29;20059;-82
2023/12/14 04:15:57;;;;;;;7.53;2.92;;;;;;;;;;4811224;29;20055;-82
2023/12/14 04:18:28;;;;;;;6.38;2.70;;;;;;;;;;4812360;29;20375;-81
2023/12/14 04:20:58;;;;;;;7.80;3.60;;;;;;;;;;4812367;29;20054;-81
2023/12/14 04:23:28;;;;;;;9.55;3.28;;;;;;;;;;4812090;29;20051;-83
2023/12/14 04:25:58;;;;;;;8.55;3.72;;;;;;;;;;4810656;29;20051;-81
2023/12/14 04:28:28;;;;;;;6.53;3.10;;;;;;;;;;4811746;29;20051;-82
2023/12/14 04:30:58;;;;;;;11.30;3.50;;;;;;;;;;4811482;29;20057;-82
2023/12/14 04:33:28;;;;;;;7.30;3.42;;;;;;;;;;4811685;29;20055;-81
2023/12/14 04:35:59;;;;;;;6.18;3.63;;;;;;;;;;4811473;29;20054;-82
2023/12/14 04:38:28;;;;;;;11.55;3.40;;;;;;;;;;4811542;29;20070;-82
2023/12/14 04:40:59;;;;;;;8.88;4.32;;;;;;;;;;4811799;29;20058;-81
2023/12/14 04:43:30;;;;;;;4.35;2.60;;;;;;;;;;4812243;29;20054;-81
2023/12/14 04:46:00;;;;;;;7.78;2.90;;;;;;;;;;4811431;29;20062;-80
2023/12/14 04:48:31;;;;;;;7.22;2.70;;;;;;;;;;4810493;29;20057;-82
2023/12/14 04:51:01;;;;;;;8.32;3.03;;;;;;;;;;4810052;29;20070;-81
2023/12/14 04:53:33;;;;;;;7.13;2.58;;;;;;;;;;4812145;29;20054;-82
2023/12/14 04:56:03;;;;;;;4.30;2.03;;;;;;;;;;4811526;29;20059;-82
2023/12/14 04:58:33;;;;;;;9.13;2.28;;;;;;;;;;4811374;29;20486;-82
2023/12/14 05:01:04;;;;;;;3.75;1.98;;;;;;;;;;4810182;29;20083;-81
2023/12/14 05:03:37;;;;;;;4.28;2.33;;;;;;;;;;4811877;29;20505;-80
2023/12/14 05:06:08;;;;;;;4.43;1.80;;;;;;;;;;4811582;29;20047;-82
2023/12/14 05:08:39;;;;;;;4.15;2.00;;;;;;;;;;4810149;29;20051;-82
2023/12/14 05:11:13;;;;;;;6.50;2.28;;;;;;;;;;4810116;29;20491;-82
2023/12/14 05:13:43;;;;;;;5.55;1.77;;;;;;;;;;4809644;29;20062;-80
2023/12/14 05:16:16;;;;;;;3.30;1.80;;;;;;;;;;4811741;29;20050;-80
2023/12/14 05:18:46;;;;;;;3.75;1.70;;;;;;;;;;4825140;29;20054;-81
2023/12/14 05:21:18;;;;;;;5.10;2.08;;;;;;;;;;4827418;29;20050;-82
2023/12/14 05:23:48;;;;;;;;;;;;;;;;;;4826199;29;20046;-81
2023/12/14 05:26:19;;;;;;;3.47;1.70;;;;;;;;;;4825192;29;19932;-79
2023/12/14 05:28:49;;;;;;;7.00;1.50;;;;;;;;;;4826605;29;20427;-81
2023/12/14 05:31:19;;;;;;;3.78;1.10;;;;;;;;;;4826425;29;20376;-80
2023/12/14 05:33:50;;;;;;;4.75;1.98;;;;;;;;;;4826440;29;20513;-80
2023/12/14 05:36:21;;;;;;;2.83;1.80;;;;;;;;;;4825918;29;20106;-80
2023/12/14 05:38:51;;;;;;;4.13;1.80;;;;;;;;;;4824162;29;20050;-80
2023/12/14 05:41:21;;;;;;;5.95;2.55;;;;;;;;;;4826334;29;20077;-81
2023/12/14 05:43:52;;;;;;;4.93;1.30;;;;;;;;;;4825815;29;20413;-80
2023/12/14 05:46:25;;;;;;;4.85;2.08;;;;;;;;;;4824356;29;20541;-81
2023/12/14 05:48:55;;;;;;;4.90;2.10;;;;;;;;;;4826244;29;20483;-81
2023/12/14 05:51:30;;;;;;;5.50;2.05;;;;;;;;;;4826579;29;20058;-81
2023/12/14 05:54:01;;;;;;;3.35;2.10;;;;;;;;;;4826472;29;20046;-80
2023/12/14 05:56:31;;;;;;;5.53;2.13;;;;;;;;;;4809955;29;20054;-80
2023/12/14 05:59:04;;;;;;;3.80;1.92;;;;;;;;;;4826113;29;20051;-80
2023/12/14 06:01:34;;;;;;;5.72;2.03;;;;;;;;;;4826238;29;20051;-80
2023/12/14 06:04:04;;;;;;;4.32;2.20;;;;;;;;;;4826323;29;20050;-80
2023/12/14 06:06:34;;;;;;;6.70;2.95;;;;;;;;;;4824224;29;20062;-81
2023/12/14 06:09:07;;;;;;;4.15;2.25;;;;;;;;;;4826214;29;20050;-80
2023/12/14 06:11:38;;;;;;;4.57;2.05;;;;;;;;;;4824720;29;20498;-81
2023/12/14 06:14:08;;;;;;;4.75;2.03;;;;;;;;;;4823914;29;20085;-81
2023/12/14 06:16:38;;;;;;;6.72;2.20;;;;;;;;;;4824440;29;20054;-80
2023/12/14 06:19:09;;;;;;;4.40;2.00;;;;;;;;;;4825976;29;20054;-80
2023/12/14 06:21:39;;;;;;;3.10;2.13;;;;;;;;;;4826616;29;20463;-80
2023/12/14 06:24:09;;;;;;;6.63;2.60;;;;;;;;;;4825826;29;20050;-80
2023/12/14 06:26:43;;;;;;;4.45;1.80;;;;;;;;;;4823752;29;20386;-81
2023/12/14 06:29:13;;;;;;;5.15;2.25;;;;;;;;;;4825679;29;20053;-80
2023/12/14 06:31:46;;;;;;;9.20;2.30;;;;;;;;;;4825657;29;20118;-80
2023/12/14 06:34:16;;;;;;;7.32;1.88;;;;;;;;;;4824936;29;20395;-81
2023/12/14 06:36:47;;;;;;;7.72;2.83;;;;;;;;;;4823523;29;20065;-80
2023/12/14 06:39:18;;;;;;;6.15;2.72;;;;;;;;;;4808590;29;20050;-80
2023/12/14 06:41:48;;;;;;;4.05;2.38;;;;;;;;;;4825414;29;20061;-81
2023/12/14 06:44:18;;;;;;;6.53;2.60;;;;;;;;;;4825100;29;20050;-80
2023/12/14 06:46:49;;;;;;;7.13;2.78;;;;;;;;;;4825097;29;20054;-80
2023/12/14 06:49:19;;;;;;;7.07;2.58;;;;;;;;;;4808357;29;20062;-80
2023/12/14 06:51:49;;;;;;;9.20;3.75;;;;;;;;;;4825392;29;20050;-81
2023/12/14 06:54:20;;;;;;;6.22;2.55;;;;;;;;;;4825373;29;20546;-81
2023/12/14 06:56:50;;;;;;;7.47;2.47;;;;;;;;;;4825043;29;20061;-81
2023/12/14 06:59:20;;;;;;;8.82;2.10;;;;;;;;;;4825139;29;20494;-81
2023/12/14 07:01:50;;;;;;;14.77;2.88;;;;;;;;;;4825062;29;20050;-81
2023/12/14 07:04:21;;;;;;;7.10;2.78;;;;;;;;;;4825295;29;20046;-80
2023/12/14 07:06:52;;;;;;;4.90;2.10;;;;;;;;;;4824735;29;20046;-81
2023/12/14 07:09:22;;;;;;;5.72;2.60;;;;;;;;;;4823268;29;20058;-81
2023/12/14 07:11:53;;;;;;;6.50;2.40;;;;;;;;;;4825199;29;20054;-81
2023/12/14 07:14:23;;;;;;;8.68;2.58;;;;;;;;;;4825105;29;20081;-81
2023/12/14 07:16:56;;;;;;;7.80;2.50;;;;;;;;;;4824702;29;20043;-81
2023/12/14 07:19:26;;;;;;;5.32;2.30;;;;;;;;;;4822930;29;20065;-81
2023/12/14 07:21:56;;;;;;;3.80;2.35;;;;;;;;;;4823831;29;20057;-81
2023/12/14 07:24:26;;;;;;;6.05;1.70;;;;;;;;;;4824547;29;20414;-81
2023/12/14 07:27:02;;;;;;;6.18;1.88;;;;;;;;;;4824605;29;20414;-81
2023/12/14 07:29:32;;;;;;;6.63;2.15;;;;;;;;;;4822988;29;20054;-80
2023/12/14 07:32:03;;;;;;;9.23;2.70;;;;;;;;;;4824713;29;20055;-80
2023/12/14 07:34:33;;;;;;;12.52;2.40;;;;;;;;;;4823265;29;20054;-80
2023/12/14 07:37:04;;;;;;;5.55;2.75;;;;;;;;;;4824846;29;20053;-80
2023/12/14 07:39:34;;;;;;;6.18;2.47;;;;;;;;;;4823131;29;20065;-81
2023/12/14 07:42:05;;;;;;;9.05;2.92;;;;;;;;;;4824883;29;20467;-80
2023/12/14 07:44:35;;;;;;;7.78;2.22;;;;;;;;;;4821988;29;20410;-81
2023/12/14 07:47:05;;;;;;;7.40;2.97;;;;;;;;;;4823356;29;20054;-79
2023/12/14 07:49:35;;;;;;;11.35;2.63;;;;;;;;;;4824109;29;20153;-80
2023/12/14 07:52:06;;;;;;;12.48;3.47;;;;;;;;;;4824511;29;20054;-81
2023/12/14 07:54:37;;;;;;;6.55;2.55;;;;;;;;;;4823161;29;20047;-81
2023/12/14 07:57:07;;;;;;;13.27;2.90;;;;;;;;;;4824790;29;20050;-80
2023/12/14 07:59:38;;;;;;;10.35;2.92;;;;;;;;;;4823077;29;20061;-80
2023/12/14 08:02:08;;;;;;;10.35;2.60;;;;;;;;;;4823607;29;20049;-82
2023/12/14 08:04:38;;;;;;;5.80;2.95;;;;;;;;;;4823477;29;20065;-81
2023/12/14 08:07:08;;;;;;;9.40;2.85;;;;;;;;;;4822605;29;20059;-80
2023/12/14 08:09:38;;;;;;;8.77;2.58;;;;;;;;;;4823846;29;20396;-81
2023/12/14 08:12:08;;;;;;;8.02;2.50;;;;;;;;;;4823907;29;20050;-81
2023/12/14 08:14:43;;;;;;;10.35;2.08;;;;;;;;;;4824190;29;20398;-80
2023/12/14 08:17:13;;;;;;;8.80;2.67;;;;;;;;;;4824480;29;20057;-80
2023/12/14 08:19:44;;;;;;;7.55;2.72;;;;;;;;;;4823759;29;20065;-82
2023/12/14 08:22:15;;;;;;;7.00;2.80;;;;;;;;;;4823999;29;20046;-81
2023/12/14 08:24:46;;;;;;;9.18;2.83;;;;;;;;;;4823870;29;20050;-81
2023/12/14 08:27:16;;;;;;;7.43;2.58;;;;;;;;;;4823507;29;20604;-81
2023/12/14 08:29:47;;;;;;;7.22;3.25;;;;;;;;;;4823418;29;20054;-82
2023/12/14 08:32:17;;;;;;;5.25;2.92;;;;;;;;;;4823788;29;20051;-82
2023/12/14 08:34:47;;;;;;;4.90;2.90;;;;;;;;;;4823813;29;20054;-80
2023/12/14 08:37:17;;;;;;;7.40;2.75;;;;;;;;;;4822395;29;20605;-81
2023/12/14 08:39:47;;;;;;;9.35;3.13;;;;;;;;;;4824080;29;20042;-81
2023/12/14 08:42:19;;;;;;;13.02;3.17;;;;;;;;;;4823061;29;20050;-80
2023/12/14 08:44:51;;;;;;;8.35;3.30;;;;;;;;;;4822780;29;20046;-82
2023/12/14 08:47:21;;;;;;;6.75;3.00;;;;;;;;;;4824106;29;20081;-81
2023/12/14 08:49:51;;;;;;;6.10;3.10;;;;;;;;;;4823154;29;20058;-83
2023/12/14 08:52:22;;;;;;;10.20;2.83;;;;;;;;;;4807268;29;20070;-80
2023/12/14 08:54:52;;;;;;;7.95;3.30;;;;;;;;;;4823750;29;20054;-82
2023/12/14 08:57:22;;;;;;;8.75;2.90;;;;;;;;;;4826097;29;20050;-80
2023/12/14 08:59:55;;;;;;;5.40;2.90;;;;;;;;;;4827196;29;20074;-81
2023/12/14 09:02:25;;;;;;;5.60;3.22;;;;;;;;;;4837232;29;20132;-81
2023/12/14 09:04:55;;;;;;;6.47;2.83;;;;;;;;;;4808868;29;20084;-82
2023/12/14 09:07:25;;;;;;;6.47;2.70;;;;;;;;;;4809161;29;20212;-83
2023/12/14 09:09:57;;;;;;;5.85;2.78;;;;;;;;;;4806730;29;20059;-81
2023/12/14 09:12:27;;;;;;;12.82;2.63;;;;;;;;;;4809320;29;20505;-82
2023/12/14 09:14:59;;;;;;;3.42;2.05;;;;;;;;;;4808359;29;20423;-82
2023/12/14 09:17:32;;;;;;;12.35;2.38;;;;;;;;;;4808622;29;20051;-82
2023/12/14 09:20:07;;;;;;;11.30;2.63;;;;;;;;;;4809176;29;20051;-82
2023/12/14 09:22:38;;;;;;;6.10;2.67;;;;;;;;;;4808519;29;20047;-82
2023/12/14 09:25:09;;;;;;;8.02;2.60;;;;;;;;;;4808531;29;20491;-82
2023/12/14 09:27:39;;;;;;;13.52;2.70;;;;;;;;;;4808095;29;20051;-82
2023/12/14 09:30:11;;;;;;;10.73;2.78;;;;;;;;;;4808450;29;20506;-81
2023/12/14 09:32:41;;;;;;;10.02;2.40;;;;;;;;;;4807351;29;20506;-82
2023/12/14 09:35:11;;;;;;;4.55;2.03;;;;;;;;;;4806992;29;20414;-81
2023/12/14 09:37:44;;;;;;;6.35;3.00;;;;;;;;;;4808493;29;20509;-82
2023/12/14 09:40:19;;;;;;;5.07;2.30;;;;;;;;;;4812208;29;20525;-81
2023/12/14 09:42:49;;;;;;;8.95;3.38;;;;;;;;;;4843117;29;20057;-82
2023/12/14 09:45:24;;;;;;;19.95;3.08;;;;;;;;;;4841642;29;20058;-82
2023/12/14 09:47:59;;;;;;;20.67;2.63;;;;;;;;;;4823248;29;20314;-83
2023/12/14 09:50:31;;;;;;;6.75;3.00;;;;;;;;;;4823512;29;20042;-82
2023/12/14 09:53:02;;;;;;;9.13;2.78;;;;;;;;;;4826606;29;20051;-81
2023/12/14 09:55:32;;;;;;;5.30;2.33;;;;;;;;;;4825649;29;20050;-81
2023/12/14 09:58:03;;;;;;;6.78;2.42;;;;;;;;;;4823805;29;20062;-82
2023/12/14 10:00:42;;;;;;;4.50;2.30;;;;;;;;;;4825027;29;20062;-81
2023/12/14 10:03:28;;;;;;;8.60;2.30;;;;;;;;;;4826378;29;20046;-82
2023/12/14 10:06:01;;;;;;;8.13;2.58;;;;;;;;;;4825851;29;20042;-81
2023/12/14 10:08:32;;;;;;;13.00;2.65;;;;;;;;;;4823748;29;20050;-82
2023/12/14 10:11:15;;;;;;;7.22;2.67;;;;;;;;;;4825511;29;20069;-81
2023/12/14 10:13:46;;;;;;;10.45;3.08;;;;;;;;;;4825836;29;20502;-82
2023/12/14 10:16:34;;;;;;;18.13;4.68;;;;;;;;;;4825945;29;20410;-82
2023/12/14 10:19:04;;;;;;;7.47;3.10;;;;;;;;;;4825606;29;20054;-82
2023/12/14 10:21:36;;;;;;;8.35;3.40;;;;;;;;;;4823893;29;20050;-83
2023/12/14 10:24:07;;;;;;;10.52;3.72;;;;;;;;;;4810052;29;20062;-82
2023/12/14 10:26:37;;;;;;;8.75;3.42;;;;;;;;;;4823585;29;20062;-81
2023/12/14 10:29:08;;;;;;;10.90;3.53;;;;;;;;;;4825563;29;20046;-82
2023/12/14 10:31:39;;;;;;;6.32;3.05;;;;;;;;;;4825293;29;20513;-83
2023/12/14 10:34:12;;;;;;;7.10;3.10;;;;;;;;;;4825367;29;20050;-82
2023/12/14 10:36:46;;;;;;;5.45;2.80;;;;;;;;;;4824109;29;20046;-83
2023/12/14 10:39:18;;;;;;;6.07;3.03;;;;;;;;;;4825885;29;20062;-82
2023/12/14 10:41:48;;;;;;;11.18;6.25;;;;;;;;;;4825716;29;20066;-83
2023/12/14 10:44:28;;;;;;;7.63;2.83;;;;;;;;;;4825399;29;20065;-82
2023/12/14 10:47:20;;;;;;;5.18;2.45;;;;;;;;;;4825378;29;20053;-82
2023/12/14 10:49:51;;;;;;;4.63;2.55;;;;;;;;;;4827079;29;20051;-83
2023/12/14 10:52:24;;;;;;;7.25;2.70;;;;;;;;;;4825228;29;20059;-82
2023/12/14 10:55:08;;;;;;;6.28;3.30;;;;;;;;;;4825409;29;20062;-82
2023/12/14 10:57:40;;;;;;;9.63;4.47;;;;;;;;;;4823999;29;20046;-82
2023/12/14 11:00:14;;;;;;;10.63;3.45;;;;;;;;;;4824999;29;20414;-83
2023/12/14 11:02:47;;;;;;;7.40;3.28;;;;;;;;;;4825365;29;20046;-84
2023/12/14 11:05:22;;;;;;;7.25;3.15;;;;;;;;;;4824939;29;20517;-82
2023/12/14 11:07:55;;;;;;;7.50;3.08;;;;;;;;;;4825524;29;20046;-82
2023/12/14 11:10:36;;;;;;;8.98;3.00;;;;;;;;;;4815001;29;20073;-82
2023/12/14 11:13:17;;;;;;;11.20;4.25;;;;;;;;;;4805207;29;20074;-84
2023/12/14 11:15:52;;;;;;;13.27;3.15;;;;;;;;;;4816326;29;20509;-82
2023/12/14 11:18:25;;;;;;;9.10;2.80;;;;;;;;;;4806624;29;20054;-83
2023/12/14 11:20:59;;;;;;;11.77;2.40;;;;;;;;;;4806701;29;20059;-82
2023/12/14 11:23:38;;;;;;;4.82;2.20;;;;;;;;;;4817572;29;20046;-83
2023/12/14 11:26:12;;;;;;;8.77;2.28;;;;;;;;;;4820871;29;20051;-81
2023/12/14 11:28:43;;;;;;;5.65;2.60;;;;;;;;;;4816290;29;20047;-83
2023/12/14 11:31:14;;;;;;;6.88;2.25;;;;;;;;;;4823111;29;20065;-83
2023/12/14 11:33:47;;;;;;;7.82;2.60;;;;;;;;;;4823525;29;20055;-85
2023/12/14 11:36:19;;;;;;;6.40;2.65;;;;;;;;;;4827471;29;20057;-83
2023/12/14 11:38:50;;;;;;;6.72;1.95;;;;;;;;;;4804991;29;20430;-84
2023/12/14 11:41:25;;;;;;;5.47;2.50;;;;;;;;;;4808477;29;20047;-84
2023/12/14 11:43:56;;;;;;;4.15;2.13;;;;;;;;;;4814509;29;20058;-84
2023/12/14 11:46:26;;;;;;;8.13;3.40;;;;;;;;;;4813407;29;20066;-84
2023/12/14 11:48:57;;;;;;;5.93;2.88;;;;;;;;;;4805250;29;20503;-83
2023/12/14 11:51:30;;;;;;;4.32;2.30;;;;;;;;;;4804775;29;20047;-83
2023/12/14 11:54:04;;;;;;;4.97;2.15;;;;;;;;;;4803539;29;20051;-84
2023/12/14 11:56:35;;;;;;;5.05;1.95;;;;;;;;;;4831630;29;20053;-84
2023/12/14 11:59:11;;;;;;;4.05;2.20;;;;;;;;;;4842909;29;20053;-84
2023/12/14 12:01:55;;;;;;;4.28;2.10;;;;;;;;;;4842553;29;20061;-85
2023/12/14 12:04:26;;;;;;;3.88;2.53;;;;;;;;;;4840833;29;20058;-85
2023/12/14 12:07:01;;;;;;;4.65;1.98;;;;;;;;;;4842622;29;20054;-85
2023/12/14 12:09:49;;;;;;;11.18;2.15;;;;;;;;;;4842078;29;20045;-85
2023/12/14 12:12:19;;;;;;;2.55;1.88;;;;;;;;;;4839980;29;20497;-85
2023/12/14 12:14:52;;;;;;;6.38;2.22;;;;;;;;;;4842467;29;20066;-84
2023/12/14 12:17:23;;;;;;;3.05;1.60;;;;;;;;;;4840993;29;20049;-85
2023/12/14 12:19:53;;;;;;;;;;;;;;;;;;4821367;29;20402;-84
2023/12/14 12:22:23;;;;;;;3.97;1.67;;;;;;;;;;4824118;29;19924;-84
2023/12/14 12:24:55;;;;;;;5.70;1.77;;;;;;;;;;4824522;29;20520;-83
2023/12/14 12:27:41;;;;;;;4.63;1.80;;;;;;;;;;4823022;29;20046;-83
2023/12/14 12:30:11;;;;;;;4.20;2.00;;;;;;;;;;4824743;29;20488;-85
2023/12/14 12:32:43;;;;;;;4.13;1.58;;;;;;;;;;4826350;29;20046;-82
2023/12/14 12:35:13;;;;;;;;;;;;;;;;;;4827363;29;20058;-84
2023/12/14 12:37:44;;;;;;;3.67;1.80;;;;;;;;;;4825910;29;20428;-83
2023/12/14 12:40:19;;;;;;;3.97;1.60;;;;;;;;;;4815743;29;20522;-82
2023/12/14 12:42:50;;;;;;;5.70;2.00;;;;;;;;;;4808242;29;20051;-84
2023/12/14 12:45:27;;;;;;;3.88;1.65;;;;;;;;;;4818277;29;20054;-83
2023/12/14 12:47:58;;;;;;;5.30;2.65;;;;;;;;;;4826123;29;20050;-83
2023/12/14 12:50:28;;;;;;;4.57;1.67;;;;;;;;;;4854183;29;20050;-84
2023/12/14 12:52:59;;;;;;;6.03;1.80;;;;;;;;;;4825578;29;20057;-84
2023/12/14 12:55:29;;;;;;;2.90;1.98;;;;;;;;;;4826136;29;20054;-85
2023/12/14 12:58:04;;;;;;;3.17;1.60;;;;;;;;;;4824532;29;20046;-84
2023/12/14 13:00:36;;;;;;;3.67;1.85;;;;;;;;;;4826143;29;20039;-85
2023/12/14 13:03:07;;;;;;;3.47;1.75;;;;;;;;;;4825519;29;20066;-84
2023/12/14 13:05:37;;;;;;;5.35;2.38;;;;;;;;;;4821554;29;20125;-83
2023/12/14 13:08:07;;;;;;;2.67;1.20;;;;;;;;;;4820949;29;20399;-86
2023/12/14 13:10:38;;;;;;;4.30;1.90;;;;;;;;;;4825455;29;20516;-84
2023/12/14 13:13:11;;;;;;;6.93;2.28;;;;;;;;;;4824175;29;20042;-86
2023/12/14 13:15:41;;;;;;;4.88;1.67;;;;;;;;;;4825481;29;20051;-84
2023/12/14 13:18:12;;;;;;;4.82;2.17;;;;;;;;;;4820142;29;20513;-86
2023/12/14 13:20:42;;;;;;;4.20;2.30;;;;;;;;;;4809264;29;20097;-84
2023/12/14 13:23:12;;;;;;;4.35;1.70;;;;;;;;;;4824645;29;20054;-85
2023/12/14 13:25:44;;;;;;;2.63;1.85;;;;;;;;;;4853418;29;20061;-86
2023/12/14 13:28:15;;;;;;;5.13;1.77;;;;;;;;;;4826385;29;20054;-85
2023/12/14 13:30:46;;;;;;;2.90;2.28;;;;;;;;;;4826179;29;20053;-87
2023/12/14 13:33:16;;;;;;;3.28;2.10;;;;;;;;;;4823903;29;20059;-84
2023/12/14 13:35:47;;;;;;;6.35;3.15;;;;;;;;;;4824279;29;20055;-83
2023/12/14 13:38:17;;;;;;;4.40;3.67;;;;;;;;;;4825497;29;20406;-84
2023/12/14 13:40:48;;;;;;;3.00;2.13;;;;;;;;;;4835944;29;20066;-84
2023/12/14 13:43:18;;;;;;;3.33;1.98;;;;;;;;;;4842193;29;20046;-84
2023/12/14 13:45:52;;;;;;;;;;;;;;;;;;4843447;29;20057;-83
2023/12/14 13:48:42;;;;;;;2.20;0.88;;;;;;;;;;4844615;29;20269;-84
2023/12/14 13:51:11;;;;;;;3.10;1.20;;;;;;;;;;4844261;29;20058;-83
2023/12/14 13:53:43;;;;;;;2.78;1.25;;;;;;;;;;4844090;29;20050;-83
2023/12/14 13:56:14;;;;;;;2.08;1.50;;;;;;;;;;4844365;29;20050;-85
2023/12/14 13:58:43;;;;;;;5.47;1.55;;;;;;;;;;4844259;29;20046;-82
2023/12/14 14:01:14;;;;;;;4.28;1.40;;;;;;;;;;4844477;29;20494;-84
2023/12/14 14:03:46;;;;;;;3.92;1.70;;;;;;;;;;4842190;29;20144;-84
2023/12/14 14:06:17;;;;;;;2.88;1.25;;;;;;;;;;4842113;29;20046;-82
2023/12/14 14:08:47;;;;;;;1.95;1.25;;;;;;;;;;4843039;29;20058;-84
2023/12/14 14:11:17;;;;;;;2.92;1.45;;;;;;;;;;4842492;29;20058;-83
2023/12/14 14:13:49;;;;;;;4.07;1.15;;;;;;;;;;4843077;29;20061;-84
2023/12/14 14:16:20;;;;;;;2.72;1.35;;;;;;;;;;4843978;29;20053;-83
2023/12/14 14:18:53;;;;;;;3.25;1.40;;;;;;;;;;4843982;29;20065;-83
2023/12/14 14:21:23;;;;;;;3.65;1.65;;;;;;;;;;4844107;29;20054;-83
2023/12/14 14:23:54;;;;;;;7.18;1.55;;;;;;;;;;4844162;29;20064;-84
2023/12/14 14:26:24;;;;;;;2.17;1.67;;;;;;;;;;4843914;29;20493;-82
2023/12/14 14:28:59;;;;;;;1.83;1.20;;;;;;;;;;4843596;29;20053;-83
2023/12/14 14:31:34;;;;;;;2.75;1.50;;;;;;;;;;4843856;29;20042;-83
2023/12/14 14:34:05;;;;;;;3.75;1.30;;;;;;;;;;4843704;29;20042;-85
2023/12/14 14:36:35;;;;;;;5.20;1.55;;;;;;;;;;4843614;29;20054;-83
2023/12/14 14:39:06;;;;;;;4.70;1.20;;;;;;;;;;4843875;29;20509;-82
2023/12/14 14:41:36;;;;;;;6.03;1.33;;;;;;;;;;4843886;29;20046;-84
2023/12/14 14:44:06;;;;;;;3.20;1.40;;;;;;;;;;4843413;29;20516;-84
2023/12/14 14:46:36;;;;;;;3.20;1.45;;;;;;;;;;4843643;29;20049;-84
2023/12/14 14:49:07;;;;;;;4.13;1.50;;;;;;;;;;4843767;29;20061;-83
2023/12/14 14:51:37;;;;;;;3.22;1.23;;;;;;;;;;4843049;29;20066;-84
2023/12/14 14:54:07;;;;;;;5.88;1.42;;;;;;;;;;4842350;29;20042;-84
2023/12/14 14:56:38;;;;;;;3.80;1.40;;;;;;;;;;4844024;29;20057;-83
2023/12/14 14:59:09;;;;;;;4.55;1.27;;;;;;;;;;4843532;29;20058;-83
2023/12/14 15:01:41;;;;;;;4.65;1.48;;;;;;;;;;4843013;29;20053;-84
2023/12/14 15:04:11;;;;;;;2.80;1.30;;;;;;;;;;4844309;29;20073;-85
2023/12/14 15:06:41;;;;;;;3.30;1.20;;;;;;;;;;4843514;29;20470;-84
2023/12/14 15:09:12;;;;;;;1.45;1.23;;;;;;;;;;4843400;29;20077;-83
2023/12/14 15:11:42;;;;;;;4.60;1.25;;;;;;;;;;4843392;29;20050;-85